This is the latest recevied weather packets stored in our database for station/object LRCL. If no packets are shown the sender has not sent any weather packets the latest 10 day(s).
| Time | Temp. | Humidity | Pressure | Rain* | Wind** | Luminosity | Snow |
|---|---|---|---|---|---|---|---|
| 1778015888 | 12.22° C | 58% | 1012 hPa | - | - | - | - |
| 1778014988 | 12.22° C | 58% | 1012 hPa | - | - | - | - |
| 1778014090 | 12.78° C | 55% | 1012 hPa | - | - | - | - |
| 1778013188 | 12.78° C | 55% | 1012 hPa | - | - | - | - |
| 1778012319 | 12.22° C | 54% | 1012 hPa | - | - | - | - |
| 1778011389 | 12.22° C | 54% | 1012 hPa | - | - | - | - |
| 1778010488 | 12.78° C | 55% | 1012 hPa | - | - | - | - |
| 1778009588 | 12.78° C | 55% | 1012 hPa | - | - | - | - |
| 1778008688 | 15° C | 55% | 1012 hPa | - | - | - | - |
| 1778007788 | 15° C | 55% | 1012 hPa | - | - | - | - |
| 1778006889 | 16.11° C | 42% | 1012 hPa | - | - | - | - |
| 1778005988 | 16.11° C | 42% | 1012 hPa | - | - | - | - |
| 1778005088 | 17.22° C | 42% | 1012 hPa | - | - | - | - |
| 1778004188 | 17.22° C | 42% | 1012 hPa | - | - | - | - |
| 1778003285 | 20° C | 30% | 1011 hPa | - | - | - | - |
| 1778002388 | 20° C | 30% | 1011 hPa | - | - | - | - |
| 1778001488 | 23.89° C | 22% | 1011 hPa | - | - | - | - |
| 1778000588 | 23.89° C | 22% | 1011 hPa | - | - | - | - |
| 1777999688 | 25° C | 19% | 1011 hPa | - | - | - | - |
| 1777998788 | 25° C | 19% | 1011 hPa | - | - | - | - |
| 1777997889 | 25° C | 21% | 1012 hPa | - | - | - | - |
| 1777996988 | 25° C | 21% | 1012 hPa | - | - | - | - |
| 1777996088 | 26.11° C | 18% | 1012 hPa | - | - | - | - |
| 1777995188 | 26.11° C | 18% | 1012 hPa | - | - | - | - |
| 1777994296 | 26.11° C | 16% | 1012 hPa | - | - | - | - |
* Rain since midnight (hover to see other rain measurements)
** Current wind speed in m/s (hover to see current wind gust speed)